createdAt,value
2018-12-01T00:00:21.984Z,5.00
2018-12-01T00:02:50.400Z,4.90
2018-12-01T00:05:18.625Z,4.90
2018-12-01T00:07:47.185Z,4.90
2018-12-01T00:10:15.604Z,4.90
2018-12-01T00:12:43.777Z,4.90
2018-12-01T00:15:32.521Z,4.90
2018-12-01T00:18:00.716Z,4.80
2018-12-01T00:20:33.531Z,4.90
2018-12-01T00:23:01.729Z,4.80
2018-12-01T00:25:29.967Z,4.80
2018-12-01T00:27:58.180Z,4.80
2018-12-01T00:30:26.389Z,4.80
2018-12-01T00:32:55.701Z,4.80
2018-12-01T00:35:24.120Z,4.80
2018-12-01T00:37:52.345Z,4.80
2018-12-01T00:40:21.257Z,4.80
2018-12-01T00:42:49.718Z,4.70
2018-12-01T00:45:48.828Z,4.70
2018-12-01T00:48:17.227Z,4.80
2018-12-01T00:50:45.448Z,4.80
2018-12-01T00:53:13.638Z,4.70
2018-12-01T00:55:42.246Z,4.70
2018-12-01T00:58:11.300Z,4.70
2018-12-01T01:00:39.504Z,4.70
2018-12-01T01:03:07.965Z,4.70
2018-12-01T01:05:36.228Z,4.60
2018-12-01T01:08:04.525Z,4.60
2018-12-01T01:10:34.638Z,4.60
2018-12-01T01:13:02.023Z,4.70
2018-12-01T01:15:30.262Z,4.60
2018-12-01T01:17:58.453Z,4.70
2018-12-01T01:20:26.678Z,4.70
2018-12-01T01:22:54.879Z,4.70
2018-12-01T01:25:23.032Z,4.70
2018-12-01T01:27:51.223Z,4.60
2018-12-01T01:30:23.721Z,4.60
2018-12-01T01:32:58.050Z,4.50
2018-12-01T01:35:26.265Z,4.50
2018-12-01T01:37:54.508Z,4.40
2018-12-01T01:40:22.988Z,4.40
2018-12-01T01:42:51.178Z,4.40
2018-12-01T01:45:19.684Z,4.30
2018-12-01T01:47:47.993Z,4.20
2018-12-01T01:50:20.209Z,4.20
2018-12-01T01:52:48.534Z,4.10
2018-12-01T01:55:17.428Z,4.10
2018-12-01T01:57:45.958Z,4.10
2018-12-01T02:00:16.793Z,4.10
2018-12-01T02:02:50.967Z,4.10
2018-12-01T02:05:24.173Z,4.10
2018-12-01T02:07:58.964Z,4.00
2018-12-01T02:10:27.190Z,4.00
2018-12-01T02:12:55.370Z,4.00
2018-12-01T02:17:58.758Z,3.80
2018-12-01T02:20:26.937Z,3.80
2018-12-01T02:22:55.381Z,3.70
2018-12-01T02:25:23.648Z,3.60
2018-12-01T02:27:52.497Z,3.60
2018-12-01T02:30:21.366Z,3.50
2018-12-01T02:32:49.846Z,3.50
2018-12-01T02:35:20.514Z,3.40
2018-12-01T02:37:48.723Z,3.40
2018-12-01T02:40:17.664Z,3.40
2018-12-01T02:42:45.969Z,3.40
2018-12-01T02:45:25.545Z,3.40
2018-12-01T02:47:53.837Z,3.40
2018-12-01T02:50:25.686Z,3.40
2018-12-01T02:52:54.879Z,3.40
2018-12-01T02:55:23.060Z,3.40
2018-12-01T02:57:51.547Z,3.40
2018-12-01T03:00:19.820Z,3.40
2018-12-01T03:02:48.025Z,3.40
2018-12-01T03:05:16.260Z,3.40
2018-12-01T03:07:44.479Z,3.40
2018-12-01T03:10:13.617Z,3.40
2018-12-01T03:12:41.808Z,3.40
2018-12-01T03:15:11.753Z,3.40
2018-12-01T03:17:39.980Z,3.40
2018-12-01T03:20:10.553Z,3.40
2018-12-01T03:22:38.761Z,3.50
2018-12-01T03:25:08.089Z,3.50
2018-12-01T03:27:36.994Z,3.60
2018-12-01T03:30:09.457Z,3.60
2018-12-01T03:32:38.506Z,3.60
2018-12-01T03:35:08.289Z,3.60
2018-12-01T03:37:36.479Z,3.60
2018-12-01T03:40:05.865Z,3.60
2018-12-01T03:42:34.085Z,3.70
2018-12-01T03:45:02.398Z,3.60
2018-12-01T03:47:30.580Z,3.70
2018-12-01T03:49:58.757Z,3.70
2018-12-01T03:52:27.223Z,3.70
2018-12-01T03:54:55.382Z,3.70
2018-12-01T03:57:23.639Z,3.70
2018-12-01T03:59:51.844Z,3.70
2018-12-01T04:02:20.072Z,3.70
2018-12-01T04:04:48.264Z,3.60
2018-12-01T04:07:16.447Z,3.60
2018-12-01T04:09:44.654Z,3.60
2018-12-01T04:12:13.233Z,3.50
2018-12-01T04:14:41.400Z,3.60
2018-12-01T04:17:09.828Z,3.50
2018-12-01T04:19:38.062Z,3.50
2018-12-01T04:22:06.487Z,3.60
2018-12-01T04:24:34.686Z,3.60
2018-12-01T04:27:02.932Z,3.60
2018-12-01T04:29:31.177Z,3.60
2018-12-01T04:31:59.361Z,3.60
2018-12-01T04:34:27.591Z,3.60
2018-12-01T04:36:55.793Z,3.60
2018-12-01T04:39:26.099Z,3.60
2018-12-01T04:41:54.327Z,3.60
2018-12-01T04:44:22.498Z,3.50
2018-12-01T04:46:50.653Z,3.60
2018-12-01T04:49:18.840Z,3.50
2018-12-01T04:51:47.223Z,3.50
2018-12-01T04:54:16.121Z,3.40
2018-12-01T04:56:44.326Z,3.40
2018-12-01T04:59:13.028Z,3.40
2018-12-01T05:01:41.320Z,3.40
2018-12-01T05:04:09.541Z,3.40
2018-12-01T05:06:37.793Z,3.40
2018-12-01T05:09:08.440Z,3.30
2018-12-01T05:11:36.676Z,3.30
2018-12-01T05:14:04.889Z,3.20
2018-12-01T05:16:33.324Z,3.20
2018-12-01T05:19:01.496Z,3.20
2018-12-01T05:21:29.709Z,3.10
2018-12-01T05:23:57.905Z,3.10
2018-12-01T05:26:26.106Z,3.10
2018-12-01T05:28:55.389Z,3.10
2018-12-01T05:31:23.572Z,3.00
2018-12-01T05:33:51.733Z,3.00
2018-12-01T05:36:20.297Z,3.00
2018-12-01T05:38:48.504Z,3.00
2018-12-01T05:41:17.268Z,3.00
2018-12-01T05:43:45.534Z,3.00
2018-12-01T05:46:13.684Z,3.00
2018-12-01T05:48:42.167Z,3.00
2018-12-01T05:51:10.344Z,3.00
2018-12-01T05:53:38.546Z,3.00
2018-12-01T05:56:06.737Z,2.90
2018-12-01T05:58:34.940Z,2.80
2018-12-01T06:01:03.153Z,2.70
2018-12-01T06:03:31.388Z,2.70
2018-12-01T06:05:59.623Z,2.60
2018-12-01T06:08:27.768Z,2.60
2018-12-01T06:10:55.933Z,2.50
2018-12-01T06:13:24.121Z,2.50
2018-12-01T06:15:52.338Z,2.50
2018-12-01T06:18:20.544Z,2.50
2018-12-01T06:20:48.740Z,2.50
2018-12-01T06:23:17.675Z,2.50
2018-12-01T06:25:45.861Z,2.50
2018-12-01T06:28:14.067Z,2.60
2018-12-01T06:30:42.349Z,2.60
2018-12-01T06:33:10.547Z,2.70
2018-12-01T06:35:38.801Z,2.70
2018-12-01T06:38:07.113Z,2.70
2018-12-01T06:40:35.376Z,2.80
2018-12-01T06:43:03.593Z,2.80
2018-12-01T06:45:31.809Z,2.80
2018-12-01T06:48:00.047Z,2.80
2018-12-01T06:50:28.204Z,2.80
2018-12-01T06:52:56.390Z,2.80
2018-12-01T06:55:24.614Z,2.80
2018-12-01T06:57:53.704Z,2.80
2018-12-01T07:00:23.906Z,2.80
2018-12-01T07:02:52.896Z,2.90
2018-12-01T07:05:21.080Z,3.00
2018-12-01T07:07:49.305Z,3.00
2018-12-01T07:10:19.550Z,3.00
2018-12-01T07:12:50.883Z,3.10
2018-12-01T07:15:38.193Z,3.10
2018-12-01T07:18:17.800Z,3.20
2018-12-01T07:20:46.308Z,3.30
2018-12-01T07:23:14.478Z,3.40
2018-12-01T07:25:42.721Z,3.40
2018-12-01T07:28:10.944Z,3.50
2018-12-01T07:30:39.160Z,3.50
2018-12-01T07:33:07.410Z,3.60
2018-12-01T07:35:35.689Z,3.60
2018-12-01T07:38:03.896Z,3.70
2018-12-01T07:40:32.317Z,3.80
2018-12-01T07:43:00.603Z,3.80
2018-12-01T07:45:28.797Z,3.90
2018-12-01T07:47:56.983Z,4.00
2018-12-01T07:50:25.393Z,4.10
2018-12-01T07:52:55.086Z,4.10
2018-12-01T07:55:23.312Z,4.20
2018-12-01T07:57:51.572Z,4.30
2018-12-01T08:00:19.755Z,4.30
2018-12-01T08:02:49.366Z,4.40
2018-12-01T08:05:17.736Z,4.40
2018-12-01T08:07:45.986Z,4.50
2018-12-01T08:10:16.454Z,4.50
2018-12-01T08:12:45.100Z,4.50
2018-12-01T08:15:15.142Z,4.50
2018-12-01T08:17:43.416Z,4.50
2018-12-01T08:20:12.543Z,4.50
2018-12-01T08:22:40.861Z,4.60
2018-12-01T08:25:14.300Z,4.70
2018-12-01T08:27:42.543Z,4.80
2018-12-01T08:30:14.368Z,4.80
2018-12-01T08:32:43.052Z,4.90
2018-12-01T08:35:11.269Z,5.00
2018-12-01T08:37:44.596Z,5.00
2018-12-01T08:40:14.102Z,5.10
2018-12-01T08:42:42.386Z,5.20
2018-12-01T08:45:11.118Z,5.30
2018-12-01T08:47:40.469Z,5.40
2018-12-01T08:50:11.960Z,5.60
2018-12-01T08:52:42.126Z,5.70
2018-12-01T08:55:13.244Z,5.80
2018-12-01T08:57:41.471Z,5.90
2018-12-01T09:00:11.540Z,6.00
2018-12-01T09:02:39.752Z,6.10
2018-12-01T09:05:08.372Z,6.20
2018-12-01T09:07:36.758Z,6.40
2018-12-01T09:10:06.884Z,6.60
2018-12-01T09:12:35.078Z,6.70
2018-12-01T09:15:03.517Z,6.80
2018-12-01T09:17:31.917Z,7.00
2018-12-01T09:20:00.156Z,7.10
2018-12-01T09:22:28.342Z,7.10
2018-12-01T09:24:56.545Z,7.00
2018-12-01T09:27:24.730Z,7.00
2018-12-01T09:29:52.952Z,7.10
2018-12-01T09:32:21.153Z,7.30
2018-12-01T09:34:49.384Z,7.30
2018-12-01T09:37:17.704Z,7.20
2018-12-01T09:39:45.952Z,7.10
2018-12-01T09:42:14.136Z,7.10
2018-12-01T09:44:44.369Z,7.00
2018-12-01T09:47:12.602Z,6.90
2018-12-01T09:49:40.806Z,6.90
2018-12-01T09:52:09.034Z,6.80
2018-12-01T09:54:37.250Z,6.80
2018-12-01T09:57:05.469Z,6.70
2018-12-01T09:59:33.649Z,6.70
2018-12-01T10:02:01.953Z,6.70
2018-12-01T10:04:30.158Z,6.70
2018-12-01T10:06:58.323Z,6.70
2018-12-01T10:09:26.512Z,6.80
2018-12-01T10:11:54.728Z,6.90
2018-12-01T10:14:23.488Z,7.20
2018-12-01T10:16:52.131Z,7.60
2018-12-01T10:19:20.340Z,7.90
2018-12-01T10:21:48.572Z,8.10
2018-12-01T10:24:16.836Z,8.20
2018-12-01T10:26:45.285Z,8.40
2018-12-01T10:29:13.516Z,8.40
2018-12-01T10:31:41.793Z,8.40
2018-12-01T10:34:10.472Z,8.30
2018-12-01T10:36:41.264Z,8.40
2018-12-01T10:39:09.721Z,8.30
2018-12-01T10:41:37.916Z,8.30
2018-12-01T10:44:06.173Z,8.40
2018-12-01T10:46:34.398Z,8.50
2018-12-01T10:49:02.744Z,8.40
2018-12-01T10:51:31.180Z,8.40
2018-12-01T10:53:59.347Z,8.30
2018-12-01T10:56:27.592Z,8.40
2018-12-01T10:58:55.933Z,8.40
2018-12-01T11:01:28.740Z,8.40
2018-12-01T11:03:57.019Z,8.40
2018-12-01T11:06:25.268Z,8.40
2018-12-01T11:08:53.725Z,8.30
2018-12-01T11:11:21.921Z,8.20
2018-12-01T11:13:51.010Z,8.10
2018-12-01T11:16:19.940Z,8.30
2018-12-01T11:18:48.313Z,8.70
2018-12-01T11:21:16.508Z,9.30
2018-12-01T11:23:44.686Z,9.70
2018-12-01T11:26:13.138Z,10.10
2018-12-01T11:28:41.382Z,10.40
2018-12-01T11:31:09.665Z,10.70
2018-12-01T11:33:37.888Z,10.60
2018-12-01T11:36:06.081Z,10.20
2018-12-01T11:38:34.735Z,9.80
2018-12-01T11:41:02.976Z,9.50
2018-12-01T11:43:31.268Z,9.30
2018-12-01T11:45:59.456Z,9.20
2018-12-01T11:48:27.700Z,9.10
2018-12-01T11:50:55.955Z,9.20
2018-12-01T11:53:24.232Z,9.20
2018-12-01T11:55:52.392Z,9.10
2018-12-01T11:58:20.640Z,9.10
2018-12-01T12:00:49.841Z,9.00
2018-12-01T12:03:18.077Z,9.00
2018-12-01T12:05:46.561Z,9.00
2018-12-01T12:08:20.916Z,9.10
2018-12-01T12:10:49.140Z,9.10
2018-12-01T12:13:17.461Z,9.20
2018-12-01T12:15:45.621Z,9.20
2018-12-01T12:18:14.013Z,9.50
2018-12-01T12:20:42.159Z,9.60
2018-12-01T12:23:10.361Z,9.70
2018-12-01T12:25:38.589Z,9.90
2018-12-01T12:28:06.940Z,10.20
2018-12-01T12:30:35.196Z,10.20
2018-12-01T12:33:03.387Z,10.10
2018-12-01T12:35:31.869Z,10.10
2018-12-01T12:38:00.069Z,10.10
2018-12-01T12:40:28.368Z,9.90
2018-12-01T12:42:57.718Z,9.80
2018-12-01T12:45:25.904Z,9.60
2018-12-01T12:47:54.141Z,9.50
2018-12-01T12:50:22.336Z,9.40
2018-12-01T12:52:52.433Z,9.30
2018-12-01T12:55:21.922Z,9.20
2018-12-01T12:57:50.112Z,9.20
2018-12-01T13:00:20.249Z,9.30
2018-12-01T13:03:08.924Z,9.40
2018-12-01T13:05:40.360Z,9.40
2018-12-01T13:08:09.541Z,9.50
2018-12-01T13:10:37.752Z,9.60
2018-12-01T13:13:06.643Z,9.50
2018-12-01T13:15:37.096Z,9.50
2018-12-01T13:18:07.034Z,9.40
2018-12-01T13:20:35.276Z,9.20
2018-12-01T13:23:04.124Z,9.20
2018-12-01T13:25:32.322Z,9.10
2018-12-01T13:28:17.962Z,9.10
2018-12-01T13:30:47.897Z,9.20
2018-12-01T13:33:16.115Z,9.10
2018-12-01T13:35:44.316Z,9.30
2018-12-01T13:38:12.516Z,9.40
2018-12-01T13:40:40.957Z,9.60
2018-12-01T13:43:09.160Z,9.60
2018-12-01T13:45:37.731Z,9.60
2018-12-01T13:48:07.528Z,9.50
2018-12-01T13:50:35.772Z,9.50
2018-12-01T13:53:08.112Z,9.40
2018-12-01T13:55:36.261Z,9.30
2018-12-01T13:58:05.025Z,9.30
2018-12-01T14:00:33.237Z,9.20
2018-12-01T14:03:02.307Z,9.20
2018-12-01T14:05:30.515Z,9.20
2018-12-01T14:07:58.717Z,9.10
2018-12-01T14:10:28.144Z,9.00
2018-12-01T14:13:00.951Z,9.00
2018-12-01T14:15:29.207Z,8.90
2018-12-01T14:17:57.524Z,8.80
2018-12-01T14:20:25.701Z,8.70
2018-12-01T14:22:53.905Z,8.70
2018-12-01T14:25:22.632Z,8.50
2018-12-01T14:35:36.816Z,8.40
2018-12-01T14:38:10.064Z,8.10
2018-12-01T14:40:45.108Z,8.00
2018-12-01T14:43:13.602Z,7.90
2018-12-01T14:45:42.567Z,7.80
2018-12-01T14:48:10.807Z,7.70
2018-12-01T14:50:38.968Z,7.60
2018-12-01T14:53:08.324Z,7.50
2018-12-01T14:55:41.797Z,7.50
2018-12-01T14:58:10.032Z,7.40
2018-12-01T15:00:38.399Z,7.40
2018-12-01T15:03:07.374Z,7.40
2018-12-01T15:05:35.682Z,7.30
2018-12-01T15:08:03.913Z,7.30
2018-12-01T15:10:32.212Z,7.30
2018-12-01T15:13:00.708Z,7.40
2018-12-01T15:15:28.948Z,7.30
2018-12-01T15:17:57.190Z,7.30
2018-12-01T15:20:26.131Z,7.30
2018-12-01T15:22:56.304Z,7.30
2018-12-01T15:25:26.463Z,7.30
2018-12-01T15:27:54.736Z,7.30
2018-12-01T15:30:26.717Z,7.30
2018-12-01T15:33:07.381Z,7.30
2018-12-01T15:35:36.408Z,7.30
2018-12-01T15:38:04.876Z,7.30
2018-12-01T15:40:33.226Z,7.20
2018-12-01T15:43:01.480Z,7.10
2018-12-01T15:45:30.135Z,7.10
2018-12-01T15:47:58.415Z,7.10
2018-12-01T15:50:26.630Z,7.10
2018-12-01T15:52:56.213Z,7.10
2018-12-01T15:55:24.634Z,7.10
2018-12-01T15:57:53.106Z,7.10
2018-12-01T16:00:23.528Z,7.10
2018-12-01T16:02:51.805Z,7.10
2018-12-01T16:05:20.793Z,7.00
2018-12-01T16:07:50.277Z,7.00
2018-12-01T16:10:19.981Z,6.90
2018-12-01T16:12:50.768Z,6.90
2018-12-01T16:15:25.345Z,6.90
2018-12-01T16:17:53.592Z,6.80
2018-12-01T16:20:22.704Z,6.70
2018-12-01T16:22:50.885Z,6.50
2018-12-01T16:25:20.405Z,6.50
2018-12-01T16:27:48.759Z,6.50
2018-12-01T16:30:26.892Z,6.50
2018-12-01T16:32:56.363Z,6.60
2018-12-01T16:35:24.594Z,6.60
2018-12-01T16:37:53.165Z,6.50
2018-12-01T16:40:24.408Z,6.50
2018-12-01T16:42:53.117Z,6.40
2018-12-01T16:45:21.373Z,6.40
2018-12-01T16:47:49.625Z,6.40
2018-12-01T16:50:22.693Z,6.40
2018-12-01T16:52:50.932Z,6.40
2018-12-01T16:55:19.116Z,6.40
2018-12-01T16:57:47.399Z,6.40
2018-12-01T17:00:17.932Z,6.40
2018-12-01T17:02:48.245Z,6.30
2018-12-01T17:05:17.615Z,6.30
2018-12-01T17:07:46.273Z,6.30
2018-12-01T17:10:15.636Z,6.30
2018-12-01T17:12:44.446Z,6.30
2018-12-01T17:15:14.859Z,6.30
2018-12-01T17:17:43.085Z,6.30
2018-12-01T17:20:14.242Z,6.40
2018-12-01T17:22:43.744Z,6.40
2018-12-01T17:25:13.075Z,6.40
2018-12-01T17:27:42.187Z,6.40
2018-12-01T17:30:11.984Z,6.50
2018-12-01T17:32:40.215Z,6.50
2018-12-01T17:35:13.244Z,6.50
2018-12-01T17:37:42.465Z,6.50
2018-12-01T17:40:32.117Z,6.50
2018-12-01T17:43:00.528Z,6.60
2018-12-01T17:45:29.121Z,6.70
2018-12-01T17:47:57.424Z,6.70
2018-12-01T17:50:25.744Z,6.80
2018-12-01T17:52:56.141Z,6.80
2018-12-01T17:55:26.006Z,6.80
2018-12-01T17:57:54.800Z,6.90
2018-12-01T18:00:25.393Z,6.90
2018-12-01T18:02:55.848Z,6.90
2018-12-01T18:05:28.868Z,6.90
2018-12-01T18:07:57.108Z,6.80
2018-12-01T18:10:25.774Z,6.80
2018-12-01T18:12:53.956Z,6.80
2018-12-01T18:15:22.181Z,6.80
2018-12-01T18:17:51.745Z,6.70
2018-12-01T18:20:20.828Z,6.70
2018-12-01T18:22:52.400Z,6.70
2018-12-01T18:25:20.636Z,6.60
2018-12-01T18:27:49.842Z,6.70
2018-12-01T18:30:22.470Z,6.70
2018-12-01T18:32:51.064Z,6.70
2018-12-01T18:35:19.309Z,6.70
2018-12-01T18:37:47.644Z,6.70
2018-12-01T18:40:19.057Z,6.70
2018-12-01T18:42:48.296Z,6.70
2018-12-01T18:45:17.799Z,6.60
2018-12-01T18:47:46.026Z,6.60
2018-12-01T18:50:17.210Z,6.60
2018-12-01T18:53:05.001Z,6.60
2018-12-01T18:55:34.634Z,6.60
2018-12-01T18:58:02.828Z,6.60
2018-12-01T19:00:36.745Z,6.60
2018-12-01T19:03:05.049Z,6.70
2018-12-01T19:05:33.593Z,6.70
2018-12-01T19:08:01.809Z,6.70
2018-12-01T19:10:30.004Z,6.70
2018-12-01T19:12:58.237Z,6.70
2018-12-01T19:15:26.434Z,6.80
2018-12-01T19:17:54.764Z,6.80
2018-12-01T19:20:22.944Z,6.80
2018-12-01T19:22:51.182Z,6.80
2018-12-01T19:25:21.327Z,6.80
2018-12-01T19:27:50.677Z,6.80
2018-12-01T19:30:19.676Z,6.80
2018-12-01T19:33:01.230Z,6.70
2018-12-01T19:35:30.266Z,6.70
2018-12-01T19:37:58.467Z,6.80
2018-12-01T19:40:28.756Z,6.80
2018-12-01T19:42:56.430Z,6.80
2018-12-01T19:45:24.679Z,6.80
2018-12-01T19:47:52.874Z,6.80
2018-12-01T19:50:36.929Z,6.80
2018-12-01T19:53:22.377Z,6.80
2018-12-01T19:55:51.958Z,6.80
2018-12-01T19:58:21.768Z,6.80
2018-12-01T20:00:52.072Z,6.80
2018-12-01T20:03:21.369Z,6.80
2018-12-01T20:05:51.772Z,6.80
2018-12-01T20:08:20.826Z,6.90
2018-12-01T20:11:05.858Z,6.90
2018-12-01T20:13:40.773Z,6.90
2018-12-01T20:17:17.568Z,6.90
2018-12-01T20:19:45.758Z,7.00
2018-12-01T20:22:13.989Z,7.00
2018-12-01T20:24:42.220Z,7.00
2018-12-01T20:27:10.475Z,7.00
2018-12-01T20:29:38.685Z,7.00
2018-12-01T20:32:06.893Z,7.10
2018-12-01T20:34:35.861Z,7.10
2018-12-01T20:37:07.545Z,7.10
2018-12-01T20:39:38.466Z,7.10
2018-12-01T20:42:06.725Z,7.10
2018-12-01T20:44:34.950Z,7.20
2018-12-01T20:47:03.364Z,7.20
2018-12-01T20:49:31.892Z,7.20
2018-12-01T20:52:00.426Z,7.20
2018-12-01T20:54:36.474Z,7.20
2018-12-01T20:57:15.141Z,7.20
2018-12-01T20:59:43.344Z,7.20
2018-12-01T21:02:11.565Z,7.20
2018-12-01T21:04:40.372Z,7.10
2018-12-01T21:07:08.582Z,7.20
2018-12-01T21:09:37.436Z,7.20
2018-12-01T21:12:07.312Z,7.20
2018-12-01T21:14:35.593Z,7.20
2018-12-01T21:17:03.770Z,7.20
2018-12-01T21:19:32.093Z,7.20
2018-12-01T21:22:00.318Z,7.20
2018-12-01T21:24:30.105Z,7.20
2018-12-01T21:26:58.318Z,7.20
2018-12-01T21:29:26.521Z,7.30
2018-12-01T21:31:54.716Z,7.30
2018-12-01T21:34:23.058Z,7.30
2018-12-01T21:36:51.230Z,7.30
2018-12-01T21:39:19.472Z,7.30
2018-12-01T21:41:48.773Z,7.30
2018-12-01T21:44:17.114Z,7.40
2018-12-01T21:46:45.454Z,7.40
2018-12-01T21:49:14.113Z,7.40
2018-12-01T21:51:42.587Z,7.40
2018-12-01T21:54:10.790Z,7.40
2018-12-01T21:56:39.200Z,7.50
2018-12-01T21:59:07.629Z,7.50
2018-12-01T22:01:35.852Z,7.50
2018-12-01T22:04:04.114Z,7.50
2018-12-01T22:09:08.205Z,7.60
2018-12-01T22:11:36.430Z,7.50
2018-12-01T22:14:04.912Z,7.50
2018-12-01T22:16:33.262Z,7.50
2018-12-01T22:19:01.517Z,7.60
2018-12-01T22:21:30.269Z,7.60
2018-12-01T22:23:58.838Z,7.50
2018-12-01T22:26:27.008Z,7.50
2018-12-01T22:28:55.184Z,7.60
2018-12-01T22:31:23.431Z,7.60
2018-12-01T22:33:51.873Z,7.50
2018-12-01T22:36:20.070Z,7.50
2018-12-01T22:38:48.282Z,7.60
2018-12-01T22:41:16.476Z,7.60
2018-12-01T22:43:44.652Z,7.60
2018-12-01T22:46:12.881Z,7.60
2018-12-01T22:48:41.077Z,7.60
2018-12-01T22:51:09.301Z,7.60
2018-12-01T22:53:37.596Z,7.60
2018-12-01T22:56:08.060Z,7.60
2018-12-01T22:58:36.217Z,7.60
2018-12-01T23:01:04.400Z,7.60
2018-12-01T23:03:34.512Z,7.60
2018-12-01T23:06:03.685Z,7.60
2018-12-01T23:08:31.998Z,7.60
2018-12-01T23:11:00.211Z,7.50
2018-12-01T23:13:28.381Z,7.50
2018-12-01T23:15:56.581Z,7.50
2018-12-01T23:18:25.676Z,7.60
2018-12-01T23:20:53.897Z,7.50
2018-12-01T23:23:22.077Z,7.50
2018-12-01T23:25:50.310Z,7.50
2018-12-01T23:28:18.486Z,7.50
2018-12-01T23:30:51.288Z,7.50
2018-12-01T23:33:21.762Z,7.50
2018-12-01T23:35:49.949Z,7.50
2018-12-01T23:38:18.713Z,7.50
2018-12-01T23:40:47.044Z,7.50
2018-12-01T23:43:15.235Z,7.50
2018-12-01T23:45:44.096Z,7.40
2018-12-01T23:48:12.277Z,7.40
2018-12-01T23:50:43.072Z,7.40
2018-12-01T23:53:12.675Z,7.40
2018-12-01T23:55:40.858Z,7.40
2018-12-01T23:58:09.051Z,7.40
